Terminal Aerodrome Forecast
Issued by NWS Goodland, KS

Home | Current Version | Previous Version | Text Only | Print | Product List | Glossary On
Versions: 1 2 3 4 5 6 7 8 9 10 11 12 13 14
000
FTUS43 KGLD 201130
TAFGLD
TAF
KGLD 201130Z 2012/2112 20009KT 1SM BR VV003
     FM201400 27004KT 1/2SM FZFG OVC003
     FM201600 28004KT 2SM BR VCSH OVC008
      TEMPO 2016/2019 3SM SCT008 OVC013
     FM201900 31005KT P6SM OVC030
     FM202100 31010KT P6SM VCSH OVC030
     FM202200 31010KT P6SM -SHRA OVC030=

USA.gov is the U.S. government's official web portal to all federal, state and local government web resources and services.